createdAt,value
2023-01-22T00:00:14.831Z,27.75
2023-01-22T00:03:18.406Z,30.35
2023-01-22T00:06:20.646Z,30.25
2023-01-22T00:09:24.438Z,26.30
2023-01-22T00:12:26.395Z,29.20
2023-01-22T00:15:29.925Z,30.55
2023-01-22T00:18:31.489Z,28.42
2023-01-22T00:21:35.256Z,31.83
2023-01-22T00:24:37.044Z,28.45
2023-01-22T00:27:41.280Z,25.73
2023-01-22T00:30:42.877Z,28.35
2023-01-22T00:33:46.984Z,25.20
2023-01-22T00:36:48.431Z,27.35
2023-01-22T00:39:52.392Z,30.20
2023-01-22T00:42:55.745Z,29.27
2023-01-22T00:45:59.983Z,32.20
2023-01-22T00:49:03.033Z,28.63
2023-01-22T00:52:06.494Z,30.52
2023-01-22T00:55:08.370Z,32.72
2023-01-22T00:58:11.893Z,29.08
2023-01-22T01:01:14.919Z,29.63
2023-01-22T01:04:18.481Z,28.10
2023-01-22T01:07:19.929Z,35.38
2023-01-22T01:10:23.475Z,29.67
2023-01-22T01:13:26.134Z,25.33
2023-01-22T01:16:31.403Z,30.63
2023-01-22T01:19:32.977Z,28.75
2023-01-22T01:22:36.473Z,26.67
2023-01-22T01:25:41.882Z,31.17
2023-01-22T01:28:45.595Z,28.42
2023-01-22T01:31:51.020Z,25.77
2023-01-22T01:34:54.806Z,26.98
2023-01-22T01:37:56.362Z,24.38
2023-01-22T01:41:00.094Z,26.42
2023-01-22T01:44:20.458Z,27.83
2023-01-22T01:47:33.801Z,22.75
2023-01-22T01:50:37.224Z,20.15
2023-01-22T01:53:45.058Z,25.00
2023-01-22T01:56:50.441Z,20.58
2023-01-22T01:59:55.692Z,17.33
2023-01-22T02:02:58.241Z,23.02
2023-01-22T02:06:01.826Z,25.42
2023-01-22T02:09:03.650Z,23.08
2023-01-22T02:12:08.227Z,21.13
2023-01-22T02:15:10.148Z,22.20
2023-01-22T02:18:13.704Z,21.58
2023-01-22T02:21:37.949Z,16.27
2023-01-22T02:24:41.462Z,17.95
2023-01-22T02:27:43.540Z,21.85
2023-01-22T02:30:47.161Z,24.10
2023-01-22T02:33:50.220Z,15.82
2023-01-22T02:36:53.908Z,16.48
2023-01-22T02:39:55.676Z,12.02
2023-01-22T02:43:00.313Z,12.60
2023-01-22T02:46:01.963Z,12.48
2023-01-22T02:49:06.105Z,18.80
2023-01-22T02:52:09.811Z,14.10
2023-01-22T02:55:13.561Z,17.08
2023-01-22T02:58:16.645Z,13.73
2023-01-22T03:01:23.923Z,19.33
2023-01-22T03:04:28.238Z,17.35
2023-01-22T03:07:42.306Z,20.95
2023-01-22T03:10:44.671Z,16.10
2023-01-22T03:14:06.773Z,15.90
2023-01-22T03:17:27.319Z,12.82
2023-01-22T03:20:49.630Z,17.33
2023-01-22T03:23:54.957Z,20.67
2023-01-22T03:26:58.536Z,20.45
2023-01-22T03:30:01.651Z,26.35
2023-01-22T03:33:09.801Z,22.55
2023-01-22T03:36:14.532Z,18.70
2023-01-22T03:39:23.163Z,25.10
2023-01-22T03:42:25.167Z,24.17
2023-01-22T03:45:28.733Z,17.80
2023-01-22T03:48:30.519Z,19.02
2023-01-22T03:54:37.967Z,15.05
2023-01-22T03:57:41.837Z,20.70
2023-01-22T04:00:43.397Z,18.42
2023-01-22T04:03:47.629Z,11.35
2023-01-22T04:06:50.596Z,11.25
2023-01-22T04:09:54.117Z,13.23
2023-01-22T04:12:55.721Z,17.25
2023-01-22T04:16:00.403Z,18.15
2023-01-22T04:19:24.862Z,13.32
2023-01-22T04:22:51.817Z,13.68
2023-01-22T04:25:53.619Z,14.68
2023-01-22T04:28:57.247Z,13.27
2023-01-22T04:31:59.777Z,15.15
2023-01-22T04:35:21.822Z,20.00
2023-01-22T04:38:27.408Z,12.60
2023-01-22T04:41:30.910Z,14.18
2023-01-22T04:44:35.155Z,12.05
2023-01-22T04:47:43.662Z,14.40
2023-01-22T04:50:46.419Z,10.80
2023-01-22T04:53:50.309Z,9.90
2023-01-22T04:56:52.285Z,18.08
2023-01-22T04:59:55.764Z,9.52
2023-01-22T05:02:59.800Z,9.57
2023-01-22T05:06:05.356Z,13.07
2023-01-22T05:09:09.610Z,8.95
2023-01-22T05:12:27.863Z,9.43
2023-01-22T05:15:29.501Z,10.48
2023-01-22T05:18:36.635Z,11.82
2023-01-22T05:21:38.152Z,11.88
2023-01-22T05:24:42.864Z,7.18
2023-01-22T05:27:44.421Z,7.20
2023-01-22T05:30:53.144Z,8.20
2023-01-22T05:34:08.089Z,6.88
2023-01-22T05:40:14.529Z,8.25
2023-01-22T05:43:19.639Z,6.82
2023-01-22T05:46:27.685Z,10.05
2023-01-22T05:49:57.586Z,7.35
2023-01-22T05:52:59.708Z,8.98
2023-01-22T05:59:10.638Z,9.13
2023-01-22T06:02:14.321Z,14.68
2023-01-22T06:05:18.512Z,10.07
2023-01-22T06:08:28.141Z,9.10
2023-01-22T06:11:29.762Z,6.65
2023-01-22T06:17:36.124Z,7.63
2023-01-22T06:23:43.016Z,8.13
2023-01-22T06:29:49.512Z,7.63
2023-01-22T06:32:53.777Z,12.85
2023-01-22T06:35:56.409Z,9.05
2023-01-22T06:39:00.512Z,7.88
2023-01-22T06:42:12.213Z,7.13
2023-01-22T06:45:16.950Z,8.88
2023-01-22T06:48:23.749Z,9.45
2023-01-22T06:51:29.073Z,6.63
2023-01-22T06:54:31.669Z,8.77
2023-01-22T06:57:35.982Z,7.82
2023-01-22T07:00:37.595Z,7.18
2023-01-22T07:03:41.847Z,7.30
2023-01-22T07:06:43.538Z,11.68
2023-01-22T07:12:54.338Z,10.38
2023-01-22T07:16:02.354Z,6.93
2023-01-22T07:19:03.983Z,11.35
2023-01-22T07:25:09.216Z,9.75
2023-01-22T07:28:14.465Z,9.32
2023-01-22T07:31:16.099Z,9.85
2023-01-22T07:34:19.909Z,7.15
2023-01-22T07:37:21.409Z,12.60
2023-01-22T07:40:26.024Z,10.93
2023-01-22T07:43:27.718Z,12.20
2023-01-22T07:49:32.711Z,8.88
2023-01-22T07:52:36.213Z,11.32
2023-01-22T07:55:38.065Z,6.57
2023-01-22T07:58:41.712Z,7.88
2023-01-22T08:01:43.330Z,8.30
2023-01-22T08:07:48.387Z,9.75
2023-01-22T08:10:51.871Z,14.80
2023-01-22T08:13:54.375Z,9.77
2023-01-22T08:16:57.901Z,18.52
2023-01-22T08:19:59.418Z,13.52
2023-01-22T08:23:02.925Z,10.00
2023-01-22T08:26:04.642Z,10.70
2023-01-22T08:29:08.161Z,13.50
2023-01-22T08:32:09.741Z,6.78
2023-01-22T08:38:14.986Z,8.82
2023-01-22T08:44:19.854Z,9.30
2023-01-22T08:47:23.876Z,12.18
2023-01-22T08:50:26.629Z,10.75
2023-01-22T08:53:30.273Z,12.85
2023-01-22T08:56:31.716Z,9.13
2023-01-22T08:59:35.257Z,11.80
2023-01-22T09:02:37.063Z,9.32
2023-01-22T09:05:40.638Z,13.15
2023-01-22T09:08:42.237Z,11.65
2023-01-22T09:14:47.800Z,11.40
2023-01-22T09:17:51.461Z,8.95
2023-01-22T09:20:52.925Z,9.68
2023-01-22T09:23:56.467Z,10.25
2023-01-22T09:26:58.061Z,11.60
2023-01-22T09:30:01.663Z,9.82
2023-01-22T09:33:03.227Z,12.00
2023-01-22T09:36:14.723Z,14.00
2023-01-22T09:39:16.327Z,11.45
2023-01-22T09:42:39.839Z,10.20
2023-01-22T09:45:42.110Z,10.75
2023-01-22T09:48:50.521Z,11.98
2023-01-22T09:51:58.787Z,10.13
2023-01-22T09:55:02.538Z,15.18
2023-01-22T09:58:12.230Z,13.43
2023-01-22T10:01:16.762Z,13.75
2023-01-22T10:04:39.648Z,13.45
2023-01-22T10:07:49.535Z,10.60
2023-01-22T10:10:51.796Z,10.63
2023-01-22T10:13:59.120Z,12.40
2023-01-22T10:17:03.015Z,10.32
2023-01-22T10:20:10.194Z,8.73
2023-01-22T10:23:22.933Z,13.20
2023-01-22T10:26:40.525Z,13.80
2023-01-22T10:29:45.813Z,13.77
2023-01-22T10:33:04.305Z,10.70
2023-01-22T10:36:06.880Z,15.60
2023-01-22T10:39:12.728Z,13.90
2023-01-22T10:42:24.988Z,11.95
2023-01-22T10:45:28.541Z,15.45
2023-01-22T10:48:30.338Z,11.80
2023-01-22T10:54:46.386Z,11.13
2023-01-22T10:57:57.684Z,14.75
2023-01-22T11:01:06.150Z,11.75
2023-01-22T11:04:19.532Z,12.35
2023-01-22T11:07:26.823Z,14.68
2023-01-22T11:10:57.422Z,11.43
2023-01-22T11:14:02.711Z,11.10
2023-01-22T11:17:20.352Z,15.88
2023-01-22T11:20:52.645Z,20.45
2023-01-22T11:24:08.552Z,25.35
2023-01-22T11:27:37.172Z,13.57
2023-01-22T11:31:02.952Z,12.95
2023-01-22T11:34:30.834Z,13.57
2023-01-22T11:38:09.941Z,20.20
2023-01-22T11:41:29.350Z,21.55
2023-01-22T11:45:04.475Z,20.48
2023-01-22T11:48:18.143Z,17.10
2023-01-22T11:51:43.278Z,12.88
2023-01-22T11:55:12.590Z,17.15
2023-01-22T11:58:51.193Z,15.50
2023-01-22T12:02:30.353Z,15.85
2023-01-22T12:05:58.722Z,14.93
2023-01-22T12:09:07.026Z,18.05
2023-01-22T12:12:28.083Z,20.67
2023-01-22T12:15:46.897Z,18.25
2023-01-22T12:18:50.376Z,13.70
2023-01-22T12:22:22.365Z,12.48
2023-01-22T12:25:47.876Z,16.13
2023-01-22T12:29:19.972Z,12.70
2023-01-22T12:32:25.947Z,20.55
2023-01-22T12:35:30.798Z,13.40
2023-01-22T12:38:48.629Z,12.43
2023-01-22T12:42:12.169Z,15.00
2023-01-22T12:45:37.370Z,15.68
2023-01-22T12:49:05.476Z,14.45
2023-01-22T12:52:28.286Z,14.60
2023-01-22T12:55:30.000Z,13.77
2023-01-22T13:01:37.166Z,15.57
2023-01-22T13:07:42.196Z,13.68
2023-01-22T13:14:18.180Z,12.05
2023-01-22T13:17:31.136Z,17.08
2023-01-22T13:20:45.842Z,14.32
2023-01-22T13:23:49.891Z,12.82
2023-01-22T13:26:53.691Z,12.38
2023-01-22T13:30:19.264Z,17.00
2023-01-22T13:33:20.859Z,10.57
2023-01-22T13:36:25.497Z,17.67
2023-01-22T13:39:32.245Z,14.13
2023-01-22T13:42:35.777Z,11.70
2023-01-22T13:45:39.634Z,18.27
2023-01-22T13:48:43.367Z,14.38
2023-01-22T13:51:46.238Z,12.45
2023-01-22T13:55:11.381Z,14.00
2023-01-22T13:58:46.541Z,14.60
2023-01-22T14:01:51.427Z,14.57
2023-01-22T14:04:53.179Z,13.25
2023-01-22T14:08:24.183Z,14.55
2023-01-22T14:11:37.150Z,16.00
2023-01-22T14:14:41.380Z,14.63
2023-01-22T14:17:43.372Z,13.40
2023-01-22T14:20:47.320Z,12.50
2023-01-22T14:23:48.799Z,15.75
2023-01-22T14:26:52.276Z,13.40
2023-01-22T14:29:54.598Z,12.90
2023-01-22T14:32:58.589Z,14.57
2023-01-22T14:36:00.552Z,16.23
2023-01-22T14:39:06.513Z,18.17
2023-01-22T14:42:08.630Z,10.98
2023-01-22T14:48:16.348Z,42.30
2023-01-22T14:51:19.919Z,14.07
2023-01-22T14:54:21.437Z,20.00
2023-01-22T14:57:25.405Z,12.60
2023-01-22T15:00:28.079Z,16.88
2023-01-22T15:03:32.097Z,36.20
2023-01-22T15:06:33.665Z,19.63
2023-01-22T15:09:37.797Z,10.43
2023-01-22T15:12:39.286Z,15.20
2023-01-22T15:15:42.734Z,13.18
2023-01-22T15:18:45.015Z,14.77
2023-01-22T15:21:48.642Z,16.15
2023-01-22T15:24:50.229Z,14.68
2023-01-22T15:27:53.746Z,14.95
2023-01-22T15:30:58.215Z,16.23
2023-01-22T15:34:03.418Z,16.40
2023-01-22T15:37:04.995Z,12.50
2023-01-22T15:40:09.617Z,17.60
2023-01-22T15:43:11.093Z,15.73
2023-01-22T15:46:14.611Z,14.18
2023-01-22T15:49:17.503Z,14.98
2023-01-22T15:52:21.077Z,15.85
2023-01-22T15:55:22.974Z,15.38
2023-01-22T15:58:26.435Z,14.73
2023-01-22T16:01:28.030Z,18.77
2023-01-22T16:04:31.545Z,21.23
2023-01-22T16:07:33.062Z,17.58
2023-01-22T16:10:36.523Z,17.88
2023-01-22T16:13:38.111Z,17.58
2023-01-22T16:16:41.663Z,17.08
2023-01-22T16:19:43.396Z,21.80
2023-01-22T16:25:48.384Z,16.63
2023-01-22T16:28:53.843Z,17.65
2023-01-22T16:31:55.956Z,20.13
2023-01-22T16:35:00.233Z,21.73
2023-01-22T16:38:01.742Z,18.48
2023-01-22T16:41:24.250Z,19.50
2023-01-22T16:44:26.933Z,18.90
2023-01-22T16:47:30.476Z,18.95
2023-01-22T16:50:31.966Z,14.80
2023-01-22T16:53:35.453Z,17.95
2023-01-22T16:56:37.120Z,17.90
2023-01-22T17:02:42.138Z,15.43
2023-01-22T17:05:48.383Z,24.95
2023-01-22T17:08:51.281Z,18.08
2023-01-22T17:12:00.639Z,22.25
2023-01-22T17:15:02.196Z,18.90
2023-01-22T17:18:05.819Z,14.38
2023-01-22T17:21:09.844Z,21.30
2023-01-22T17:24:13.782Z,19.05
2023-01-22T17:27:17.862Z,18.98
2023-01-22T17:30:21.606Z,17.50
2023-01-22T17:33:23.842Z,17.75
2023-01-22T17:36:27.813Z,17.85
2023-01-22T17:39:29.327Z,21.73
2023-01-22T17:42:33.072Z,20.02
2023-01-22T17:45:39.222Z,20.52
2023-01-22T17:48:44.205Z,20.05
2023-01-22T17:51:45.959Z,23.73
2023-01-22T17:54:52.343Z,19.05
2023-01-22T17:57:55.192Z,17.65
2023-01-22T18:01:06.452Z,17.10
2023-01-22T18:04:09.947Z,23.45
2023-01-22T18:07:13.452Z,18.67
2023-01-22T18:10:15.190Z,16.52
2023-01-22T18:16:20.173Z,19.50
2023-01-22T18:19:24.060Z,18.48
2023-01-22T18:22:25.626Z,19.88
2023-01-22T18:25:29.138Z,22.90
2023-01-22T18:28:31.450Z,19.23
2023-01-22T18:31:35.631Z,21.42
2023-01-22T18:34:37.163Z,18.55
2023-01-22T18:37:40.632Z,19.75
2023-01-22T18:40:42.200Z,19.27
2023-01-22T18:43:53.344Z,20.60
2023-01-22T18:46:58.068Z,16.42
2023-01-22T18:50:01.591Z,19.10
2023-01-22T18:53:04.166Z,15.73
2023-01-22T18:56:09.702Z,23.85
2023-01-22T18:59:12.407Z,19.60
2023-01-22T19:02:20.487Z,21.42
2023-01-22T19:05:23.605Z,28.65
2023-01-22T19:08:27.117Z,26.33
2023-01-22T19:11:34.401Z,22.05
2023-01-22T19:14:37.900Z,17.60
2023-01-22T19:17:39.513Z,24.08
2023-01-22T19:20:43.113Z,19.40
2023-01-22T19:23:53.209Z,18.38
2023-01-22T19:26:57.372Z,16.75
2023-01-22T19:29:59.975Z,18.38
2023-01-22T19:33:03.555Z,19.98
2023-01-22T19:36:05.570Z,16.05
2023-01-22T19:39:12.240Z,21.80
2023-01-22T19:42:14.805Z,21.27
2023-01-22T19:45:18.564Z,20.30
2023-01-22T19:48:20.867Z,23.08
2023-01-22T19:51:26.282Z,20.70
2023-01-22T19:54:27.933Z,22.65
2023-01-22T19:57:32.641Z,20.40
2023-01-22T20:00:34.150Z,16.77
2023-01-22T20:03:37.763Z,20.55
2023-01-22T20:06:39.778Z,15.95
2023-01-22T20:09:44.206Z,13.80
2023-01-22T20:12:49.471Z,19.63
2023-01-22T20:15:53.554Z,18.73
2023-01-22T20:18:56.807Z,28.55
2023-01-22T20:22:03.723Z,47.08
2023-01-22T20:25:07.472Z,48.47
2023-01-22T20:28:12.861Z,50.13
2023-01-22T20:31:21.568Z,61.17
2023-01-22T20:34:25.642Z,40.22
2023-01-22T20:37:27.210Z,53.20
2023-01-22T20:40:30.706Z,44.08
2023-01-22T20:43:32.405Z,24.45
2023-01-22T20:46:39.436Z,18.13
2023-01-22T20:49:40.873Z,25.25
2023-01-22T20:52:44.419Z,21.77
2023-01-22T20:55:46.163Z,14.13
2023-01-22T21:01:58.468Z,25.70
2023-01-22T21:05:02.081Z,16.10
2023-01-22T21:08:03.766Z,17.40
2023-01-22T21:11:10.588Z,20.60
2023-01-22T21:14:15.934Z,22.75
2023-01-22T21:17:20.453Z,17.58
2023-01-22T21:20:21.994Z,16.67
2023-01-22T21:23:25.451Z,21.85
2023-01-22T21:26:29.314Z,19.15
2023-01-22T21:29:32.759Z,19.80
2023-01-22T21:32:34.255Z,16.95
2023-01-22T21:35:37.773Z,14.40
2023-01-22T21:38:39.389Z,20.40
2023-01-22T21:41:43.336Z,12.65
2023-01-22T21:45:03.379Z,18.67
2023-01-22T21:48:07.774Z,12.77
2023-01-22T21:51:09.327Z,17.27
2023-01-22T21:54:19.575Z,15.68
2023-01-22T21:57:21.086Z,24.05
2023-01-22T22:00:24.598Z,28.63
2023-01-22T22:03:26.331Z,11.90
2023-01-22T22:06:30.997Z,20.13
2023-01-22T22:09:32.593Z,24.20
2023-01-22T22:12:36.073Z,18.15
2023-01-22T22:15:38.325Z,15.77
2023-01-22T22:18:41.803Z,19.40
2023-01-22T22:21:43.945Z,23.05
2023-01-22T22:24:47.592Z,18.92
2023-01-22T22:27:49.145Z,24.58
2023-01-22T22:30:52.933Z,20.75
2023-01-22T22:33:55.982Z,23.45
2023-01-22T22:36:59.449Z,20.75
2023-01-22T22:40:00.952Z,17.05
2023-01-22T22:43:04.447Z,16.00
2023-01-22T22:46:16.529Z,22.27
2023-01-22T22:49:20.091Z,21.80
2023-01-22T22:52:21.646Z,18.13
2023-01-22T22:55:27.979Z,21.83
2023-01-22T22:58:29.468Z,21.75
2023-01-22T23:01:33.127Z,22.58
2023-01-22T23:04:35.219Z,16.52
2023-01-22T23:07:38.704Z,23.25
2023-01-22T23:10:40.155Z,15.55
2023-01-22T23:13:45.309Z,19.83
2023-01-22T23:16:49.162Z,20.63
2023-01-22T23:19:52.681Z,22.45
2023-01-22T23:22:58.121Z,16.20
2023-01-22T23:26:04.900Z,16.67
2023-01-22T23:29:09.355Z,18.25
2023-01-22T23:32:12.858Z,13.80
2023-01-22T23:35:14.399Z,22.65
2023-01-22T23:38:21.169Z,24.80
2023-01-22T23:41:23.064Z,16.50
2023-01-22T23:44:27.016Z,17.85
2023-01-22T23:47:30.357Z,20.05
2023-01-22T23:50:33.875Z,24.27
2023-01-22T23:53:37.412Z,14.77
2023-01-22T23:56:40.885Z,16.27
2023-01-22T23:59:42.473Z,17.58
